Angelo Coast Range Reserve, California Weather observations

Data are for 10 minute period ending at time listed.
 Day   Time   Solar   Ave.   Ave.  Ave.  Vector  Max.   Baro.   Total    
  of    of     Rad.   Air    Rel.  Wind   Wind   Wind  Press.  Precip.   
Year   Day            Temp.  Hum.  Speed  Dir.   Gust                    
2016   (PST)  Kw/m2    F      %     mph   deg.    mph    mb.     in.     
-------------------------------------------------------------------------
 242    1:50   0.00   48.8    94    1.7   150     3.0   968.6    0.00 
 242    2:00   0.00   48.9    94    0.2   267     1.2   968.7    0.00 
 242    2:10   0.00   48.7    94    0.1   167     0.8   968.6    0.00 
 242    2:20   0.00   48.5    94    0.6   167     1.8   968.5    0.00 
 242    2:30   0.00   48.1    94    0.4   180     2.0   968.4    0.00 
 242    2:40   0.00   47.9    95    0.2   161     1.4   968.4    0.00 
 242    2:50   0.00   47.8    95    1.9   178     2.8   968.5    0.00 
 242    3:00   0.00   47.9    95    2.8   162     5.4   968.6    0.00 
 242    3:10   0.00   48.4    94    0.8   206     2.3   968.6    0.00 
 242    3:20   0.00   48.2    94    0.9   177     2.1   968.7    0.00 
 242    3:30   0.00   48.1    94    1.2   178     2.0   968.9    0.00 
 242    3:40   0.00   48.0    94    1.4   173     2.3   968.9    0.00 
 242    3:50   0.00   47.8    94    0.7   178     1.6   968.8    0.00 
 242    4:00   0.00   47.7    95    2.6   152     4.7   968.9    0.00 
 242    4:10   0.00   48.1    94    1.6    70     4.9   969.0    0.00 
 242    4:20   0.00   48.0    94    0.4   254     1.3   968.9    0.00 
 242    4:30   0.00   47.9    94    1.7   164     3.2   969.0    0.00 
 242    4:40   0.00   48.4    94    1.3   183     3.3   969.0    0.00 
 242    4:50   0.00   48.7    93    0.6   168     1.8   968.9    0.00 
 242    5:00   0.00   48.9    93    1.1   120     2.1   968.8    0.00 
 242    5:10   0.00   48.8    94    0.7    11     1.5   968.7    0.00 
 242    5:20   0.00   48.7    95    0.2   205     1.0   968.8    0.00 
 242    5:30   0.00   48.8    94    1.3   176     3.1   968.8    0.00 
 242    5:40   0.00   48.9    94    2.1   188     3.4   968.8    0.00 
 242    5:50   0.00   49.1    93    0.3   224     1.5   968.8    0.00 
 242    6:00   0.01   49.1    93    2.3   169     4.4   969.0    0.00 
 242    6:10   0.01   48.8    94    3.4   158     5.1   969.2    0.00 
 242    6:20   0.02   48.9    94    0.8   118     2.6   969.5    0.00 
 242    6:30   0.03   49.4    92    2.1   155     4.7   969.8    0.00 
 242    6:40   0.04   49.9    91    2.7   141     5.0   969.9    0.00 
 242    6:50   0.05   50.2    90    1.8   159     4.2   969.9    0.00 
 242    7:00   0.06   50.5    90    2.3   183     3.8   970.0    0.00 
 242    7:10   0.08   50.6    91    2.0   156     4.1   969.9    0.00 
 242    7:20   0.09   50.9    90    0.9   149     2.8   969.9    0.00 
 242    7:30   0.09   51.5    88    1.8   182     4.2   970.0    0.00 
 242    7:40   0.08   51.2    89    1.5   142     2.9   970.0    0.00 
 242    7:50   0.08   51.8    88    0.7   145     3.0   969.8    0.00 
 242    8:00   0.08   52.0    86    1.2   165     2.8   969.6    0.00 
 242    8:10   0.07   52.0    86    0.9   102     2.9   969.8    0.00 
 242    8:20   0.11   52.6    85    0.2   357     1.7   969.7    0.00 
 242    8:30   0.16   53.7    82    1.2    46     2.6   969.7    0.00 
 242    8:40   0.17   54.7    80    1.6   183     3.7   969.7    0.00 
 242    8:50   0.16   56.0    76    0.1    63     1.4   969.6    0.00 
 242    9:00   0.29   56.7    75    1.7   156     3.5   969.5    0.00 
 242    9:10   0.27   57.5    73    1.3   132     2.9   969.3    0.00 
 242    9:20   0.49   58.0    73    0.5    91     1.5   969.1    0.00 
 242    9:30   0.43   59.7    70    0.4   119     1.4   968.9    0.00 
 242    9:40   0.52   60.5    69    0.1   100     0.9   968.8    0.00 
 242    9:50   0.66   62.2    65    1.6   152     3.1   968.8    0.00 
 242   10:00   0.71   65.1    59    1.6   132     4.1   968.9    0.00 
 242   10:10   0.75   65.7    59    3.7   140     8.6   969.0    0.00 
 242   10:20   0.74   66.9    57    3.6   152     9.1   969.0    0.00 
 242   10:30   0.81   68.5    55    1.8    80     3.8   968.9    0.00 
 242   10:40   0.59   68.9    54    4.1   132    12.2   968.9    0.00 
 242   10:50   0.58   68.4    55    6.2   152    10.4   968.8    0.00 
 242   11:00   0.58   69.5    55    1.7    77     6.7   968.6    0.00 
 242   11:10   0.54   71.5    53    2.8   137     9.1   968.6    0.00 
 242   11:20   0.55   70.3    55    4.9   144     8.3   968.6    0.00 
 242   11:30   0.62   70.4    55    4.9   152     8.7   968.4    0.00 
 242   11:40   0.52   71.2    54    6.5   160    10.5   968.4    0.00 
 242   11:50   0.46   70.6    56    5.8   134    12.4   968.4    0.00 
 242   12:00   0.59   69.9    58    7.5   144    13.5   968.3    0.00 
 242   12:10   0.61   70.3    59    3.0   120     8.0   968.4    0.00 
 242   12:20   0.69   71.3    57    5.0   135    11.5   968.5    0.00 
 242   12:30   0.60   69.7    59    5.1   127    11.7   968.5    0.00 
 242   12:40   0.56   70.4    58    6.2   136    12.8   968.4    0.00 
 242   12:50   0.78   70.5    58    5.0   133    10.5   968.4    0.00 
 242   13:00   0.71   71.7    56    3.6   134    10.8   968.5    0.00 
 242   13:10   0.80   70.5    57    5.9   150    13.6   968.7    0.00 
 242   13:20   0.81   70.2    57    5.8   137    12.9   968.7    0.00 
 242   13:30   0.81   71.0    56    2.7   140    10.0   968.7    0.00 
 242   13:40   0.61   70.9    55    5.3   128    15.9   968.8    0.00 
 242   13:50   0.80   69.4    57    5.7   135    12.5   968.7    0.00 
 242   14:00   0.69   69.4    57    6.1   159    14.7   968.6    0.00 
 242   14:10   0.79   69.5    57    4.3   122     8.9   968.5    0.00 
 242   14:20   0.70   69.5    56    6.3   153    14.0   968.4    0.00 
 242   14:30   0.52   68.5    58    5.5   143    11.9   968.3    0.00 
 242   14:40   0.67   69.7    56    4.2   144    10.1   968.0    0.00 
 242   14:50   0.66   69.1    56    6.9   157    12.9   968.0    0.00 
 242   15:00   0.59   69.9    55    4.2   137    13.7   968.0    0.00 
 242   15:10   0.60   69.7    56    4.1   151     9.3   967.9    0.00 
 242   15:20   0.62   70.1    55    5.8   163    12.0   967.7    0.00 
 242   15:30   0.29   69.8    56    3.9   154     9.6   967.9    0.00 
 242   15:40   0.15   68.5    58    5.2   136    11.1   967.9    0.00 
 242   15:50   0.23   67.1    61    4.4   114     9.6   967.7    0.00 
 242   16:00   0.14   66.4    62    4.4   164     7.5   967.3    0.00 
 242   16:10   0.12   66.1    63    5.0   158    10.1   967.4    0.00 
 242   16:20   0.14   64.6    66    6.2   143    12.9   967.7    0.00 
 242   16:30   0.15   63.8    67    5.7   120    11.8   967.9    0.00 
 242   16:40   0.14   63.0    69    5.4   144    10.1   967.9    0.00 
 242   16:50   0.20   63.1    69    3.6   126     7.7   967.8    0.00 
 242   17:00   0.12   62.9    69    3.7   150     8.1   967.6    0.00 
 242   17:10   0.07   62.7    69    3.6   166     6.4   967.5    0.00 
 242   17:20   0.07   62.5    70    5.5   161     8.0   967.6    0.00 
 242   17:30   0.06   62.3    70    5.2   149     9.9   967.6    0.00 
 242   17:40   0.05   62.2    70    5.5   148    10.5   967.6    0.00 
 242   17:50   0.03   61.6    70    5.2   155     9.1   967.5    0.00 
 242   18:00   0.01   61.2    71    3.9   168     6.5   967.5    0.00 
 242   18:10   0.01   60.9    72    4.0   157     8.0   967.4    0.00 
 242   18:20   0.01   60.4    73    4.0   153     6.7   967.3    0.00 
 242   18:30   0.01   60.0    74    4.4   155     7.7   967.3    0.00 
 242   18:40   0.01   59.6    75    3.1   155     5.8   967.4    0.00 
 242   18:50   0.00   59.2    76    1.7   174     2.9   967.5    0.00 
 242   19:00   0.00   58.6    77    1.6   173     3.1   967.5    0.00 
 242   19:10   0.00   58.1    78    1.4   172     2.8   967.6    0.00 
 242   19:20   0.00   57.5    80    2.4   184     4.5   967.6    0.00 
 242   19:30   0.00   57.3    81    2.4   159     4.8   967.7    0.00 
 242   19:40   0.00   56.9    82    2.6   164     4.7   967.9    0.00 
 242   19:50   0.00   56.4    84    3.0   161     4.4   968.1    0.00 
 242   20:00   0.00   56.0    85    2.7   160     4.9   968.2    0.00 
 242   20:10   0.00   55.7    86    1.8   144     4.7   968.2    0.00 
 242   20:20   0.00   55.2    86    1.4   164     3.0   968.3    0.00 
 242   20:30   0.00   54.8    87    0.5   169     2.2   968.4    0.00 
 242   20:40   0.00   54.4    88    0.6   163     1.5   968.2    0.00 
 242   20:50   0.00   54.0    89    0.6   230     1.5   968.2    0.00 
 242   21:00   0.00   53.6    90    0.9   132     1.9   968.6    0.00 
 242   21:10   0.00   53.3    90    1.1   334     1.9   968.6    0.00 
 242   21:20   0.00   53.1    91    2.0   155     3.4   968.8    0.00 
 242   21:30   0.00   53.1    90    0.9   326     2.3   968.5    0.00 
 242   21:40   0.00   52.8    91    0.6   134     2.4   968.3    0.00 
 242   21:50   0.00   52.6    91    0.1   255     1.0   968.4    0.00 
 242   22:00   0.00   52.5    90    0.0     0     0.0   968.5    0.00 
 242   22:10   0.00   52.4    91    1.2   146     2.0   968.8    0.00 
 242   22:20   0.00   52.4    91    1.3   161     3.4   968.8    0.00 
 242   22:30   0.00   52.4    91    0.1   272     0.8   968.7    0.00 
 242   22:40   0.00   52.3    91    0.0   272     0.4   968.6    0.00 
 242   22:50   0.00   52.1    91    0.0     0     0.0   968.4    0.00 
 242   23:00   0.00   51.7    92    0.7   182     2.9   968.4    0.00 
 242   23:10   0.00   51.9    92    0.3    87     1.2   968.4    0.00 
 242   23:20   0.00   51.9    91    0.0     0     0.0   968.5    0.00 
 242   23:30   0.00   51.9    91    0.0   195     0.4   968.4    0.00 
 242   23:40   0.00   51.7    92    0.6   279     1.6   968.3    0.00 
 242   23:50   0.00   51.5    92    0.2   317     1.4   968.1    0.00 
 243    0:00   0.00   51.5    92    0.3    12     1.2   968.1    0.00 
 243    0:10   0.00   51.5    92    0.2   331     1.2   968.2    0.00 
 243    0:20   0.00   51.5    92    0.3   144     1.5   968.1    0.00 
 243    0:30   0.00   51.5    92    0.3   150     1.1   968.1    0.00 
 243    0:40   0.00   51.6    92    0.2   304     1.2   968.1    0.00 
 243    0:50   0.00   51.6    92    0.7   339     2.2   967.9    0.00 
 243    1:00   0.00   51.7    92    0.1   355     1.0   967.7    0.00 
 243    1:10   0.00   51.9    91    1.0   189     2.9   967.9    0.00 
 243    1:20   0.00   52.1    91    0.0   212     0.3   968.0    0.00 
 243    1:30   0.00   52.2    90    1.3   127     2.9   968.1    0.00 
 243    1:40   0.00   52.3    90    0.8   191     2.6   968.0    0.00 

Return to Angelo Coast Range Reserve graphs page.


Western Regional Climate Center,wrcc@dri.edu